Time;durP1;ratioP1;P1;durP2;ratioP2;P2;SDS_P1;SDS_P2;PMS_P1;PMS_P2;Temp;Humidity;BMP_temperature;BMP_pressure;BME280_temperature;BME280_humidity;BME280_pressure;Samples;Min_cycle;Max_cycle;Signal;HPM_P1;HPM_P2
2023/09/02 00:01:48;;;;;;;;;;;14.30;99.90;;;;;;4995117;28;19964;-57
2023/09/02 00:04:13;;;;;;;;;;;14.30;99.90;;;;;;4990009;28;19918;-57
2023/09/02 00:06:39;;;;;;;;;;;14.20;99.90;;;;;;4987014;28;19925;-58
2023/09/02 00:09:04;;;;;;;;;;;14.30;99.90;;;;;;4990334;28;19976;-57
2023/09/02 00:11:30;;;;;;;;;;;14.30;99.90;;;;;;4994840;28;19969;-57
2023/09/02 00:13:56;;;;;;;;;;;14.30;99.90;;;;;;4994938;28;19947;-56
2023/09/02 00:16:21;;;;;;;;;;;14.30;99.90;;;;;;4994999;28;19925;-61
2023/09/02 00:18:47;;;;;;;;;;;14.40;99.90;;;;;;4991314;28;19973;-61
2023/09/02 00:21:12;;;;;;;;;;;14.40;99.90;;;;;;4994593;28;19922;-61
2023/09/02 00:23:45;;;;;;;;;;;14.40;99.90;;;;;;4994677;28;20366;-60
2023/09/02 00:26:11;;;;;;;;;;;14.50;99.90;;;;;;4994663;28;20009;-61
2023/09/02 00:28:36;;;;;;;;;;;14.50;99.90;;;;;;4990228;28;20060;-61
2023/09/02 00:31:02;;;;;;;;;;;14.50;99.90;;;;;;4994241;28;20805;-58
2023/09/02 00:33:27;;;;;;;;;;;14.60;99.90;;;;;;4987288;28;19968;-58
2023/09/02 00:35:53;;;;;;;;;;;14.60;99.90;;;;;;4994275;28;20303;-57
2023/09/02 00:38:18;;;;;;;;;;;14.50;99.90;;;;;;4992871;28;20368;-56
2023/09/02 00:40:48;;;;;;;;;;;14.50;99.90;;;;;;4987363;28;19921;-56
2023/09/02 00:43:14;;;;;;;;;;;14.50;99.90;;;;;;4994135;28;19918;-55
2023/09/02 00:45:39;;;;;;;;;;;14.50;99.90;;;;;;4994266;28;19925;-57
2023/09/02 00:48:05;;;;;;;;;;;14.50;99.90;;;;;;4994044;28;19969;-56
2023/09/02 00:50:33;;;;;;;;;;;14.50;99.90;;;;;;4995169;28;19929;-57
2023/09/02 00:52:59;;;;;;;;;;;14.50;99.90;;;;;;4994492;28;19917;-57
2023/09/02 00:55:24;;;;;;;;;;;14.50;99.90;;;;;;4976888;28;19940;-56
2023/09/02 00:57:50;;;;;;;;;;;14.50;99.90;;;;;;4993381;28;19926;-57
2023/09/02 01:00:17;;;;;;;;;;;14.50;99.90;;;;;;4981610;28;19972;-57
2023/09/02 01:02:43;;;;;;;;;;;14.40;99.90;;;;;;4971740;28;20440;-56
2023/09/02 01:05:09;;;;;;;;;;;14.40;99.90;;;;;;5013209;28;20395;-56
2023/09/02 01:07:35;;;;;;;;;;;14.40;99.90;;;;;;4993603;28;19921;-56
2023/09/02 01:10:01;;;;;;;;;;;14.40;99.90;;;;;;5001720;28;19917;-56
2023/09/02 01:12:27;;;;;;;;;;;14.40;99.90;;;;;;4993965;28;19928;-60
2023/09/02 01:14:52;;;;;;;;;;;14.40;99.90;;;;;;4993931;28;19922;-61
2023/09/02 01:17:18;;;;;;;;;;;14.30;99.90;;;;;;4993398;28;19924;-60
2023/09/02 01:19:44;;;;;;;;;;;14.30;99.90;;;;;;5010799;28;19921;-60
2023/09/02 01:22:30;;;;;;;;;;;14.20;99.90;;;;;;5002899;28;20009;-57
2023/09/02 01:24:56;;;;;;;;;;;14.20;99.90;;;;;;4914630;29;20387;-57
2023/09/02 01:27:36;;;;;;;;;;;14.20;99.90;;;;;;4914361;29;19962;-57
2023/09/02 01:30:04;;;;;;;;;;;14.20;99.90;;;;;;4929492;29;20391;-57
2023/09/02 01:32:33;;;;;;;;;;;14.20;99.90;;;;;;4932560;29;20386;-57
2023/09/02 01:35:03;;;;;;;;;;;14.20;99.90;;;;;;4932899;29;19927;-56
2023/09/02 01:37:30;;;;;;;;;;;14.20;99.90;;;;;;4933406;29;19919;-57
2023/09/02 01:39:57;;;;;;;;;;;14.10;99.90;;;;;;4933260;29;19919;-57
2023/09/02 01:42:23;;;;;;;;;;;14.10;99.90;;;;;;4932476;29;20445;-56
2023/09/02 01:44:49;;;;;;;;;;;14.10;99.90;;;;;;4932241;29;19923;-61
2023/09/02 01:47:15;;;;;;;;;;;14.10;99.90;;;;;;4932211;29;19970;-61
2023/09/02 01:49:40;;;;;;;;;;;14.00;99.90;;;;;;4933184;29;19934;-61
2023/09/02 01:52:06;;;;;;;;;;;14.10;99.90;;;;;;4933120;29;19929;-61
2023/09/02 01:54:32;;;;;;;;;;;14.00;99.90;;;;;;4931753;29;20057;-57
2023/09/02 01:56:57;;;;;;;;;;;14.00;99.90;;;;;;4916763;29;20009;-57
2023/09/02 01:59:23;;;;;;;;;;;14.00;99.90;;;;;;4916949;29;19922;-56
2023/09/02 02:01:49;;;;;;;;;;;14.00;99.90;;;;;;4958203;28;19918;-56
2023/09/02 02:04:18;;;;;;;;;;;14.00;99.90;;;;;;4988907;28;19917;-55
2023/09/02 02:06:45;;;;;;;;;;;14.00;99.90;;;;;;4992531;28;19980;-56
2023/09/02 02:09:19;;;;;;;;;;;13.90;99.90;;;;;;4992605;28;19972;-57
2023/09/02 02:11:45;;;;;;;;;;;13.90;99.90;;;;;;4992539;28;20455;-57
2023/09/02 02:14:11;;;;;;;;;;;13.90;99.90;;;;;;4992827;28;19961;-57
2023/09/02 02:16:36;;;;;;;;;;;13.80;99.90;;;;;;4967761;28;19953;-57
2023/09/02 02:19:02;;;;;;;;;;;13.90;99.90;;;;;;4993007;28;20372;-56
2023/09/02 02:21:28;;;;;;;;;;;13.80;99.90;;;;;;4992597;28;19969;-55
2023/09/02 02:23:54;;;;;;;;;;;13.70;99.90;;;;;;4975288;28;19918;-56
2023/09/02 02:26:20;;;;;;;;;;;13.80;99.90;;;;;;4990262;28;19925;-57
2023/09/02 02:28:46;;;;;;;;;;;13.70;99.90;;;;;;4979609;28;20291;-57
2023/09/02 02:31:12;;;;;;;;;;;13.70;99.90;;;;;;4992557;28;19975;-57
2023/09/02 02:33:37;;;;;;;;;;;13.60;99.90;;;;;;4992573;28;19922;-56
2023/09/02 02:36:03;;;;;;;;;;;13.70;99.90;;;;;;4974884;28;19925;-57
2023/09/02 02:38:29;;;;;;;;;;;13.60;99.90;;;;;;4992018;28;19918;-57
2023/09/02 02:40:55;;;;;;;;;;;13.60;99.90;;;;;;4974941;28;19925;-58
2023/09/02 02:43:25;;;;;;;;;;;13.50;99.90;;;;;;4992604;28;19928;-57
2023/09/02 02:45:51;;;;;;;;;;;13.50;99.90;;;;;;4992646;28;19921;-57
2023/09/02 02:48:17;;;;;;;;;;;13.50;99.90;;;;;;4992596;28;19939;-57
2023/09/02 02:50:42;;;;;;;;;;;13.40;99.90;;;;;;4992520;28;20372;-57
2023/09/02 02:53:08;;;;;;;;;;;13.40;99.90;;;;;;4993054;28;20709;-55
2023/09/02 02:55:33;;;;;;;;;;;13.40;99.90;;;;;;4993059;28;20684;-57
2023/09/02 02:57:59;;;;;;;;;;;13.40;99.90;;;;;;5003653;28;19922;-56
2023/09/02 03:00:25;;;;;;;;;;;13.30;99.90;;;;;;4995897;28;19921;-56
2023/09/02 03:02:51;;;;;;;;;;;13.40;99.90;;;;;;4995922;28;20364;-60
2023/09/02 03:05:19;;;;;;;;;;;13.40;99.90;;;;;;4996662;28;19917;-60
2023/09/02 03:07:45;;;;;;;;;;;13.40;99.90;;;;;;4995269;28;19917;-60
2023/09/02 03:10:11;;;;;;;;;;;13.30;99.90;;;;;;4977793;28;19924;-57
2023/09/02 03:12:36;;;;;;;;;;;13.40;99.90;;;;;;4995955;28;19979;-57
2023/09/02 03:15:02;;;;;;;;;;;13.40;99.90;;;;;;4995831;28;19917;-57
2023/09/02 03:17:28;;;;;;;;;;;13.40;99.90;;;;;;4994593;28;19922;-58
2023/09/02 03:19:53;;;;;;;;;;;13.30;99.90;;;;;;4995749;28;20343;-57
2023/09/02 03:22:19;;;;;;;;;;;13.30;99.90;;;;;;4977743;28;20284;-57
2023/09/02 03:24:44;;;;;;;;;;;13.30;99.90;;;;;;4995473;28;20012;-57
2023/09/02 03:27:10;;;;;;;;;;;13.30;99.90;;;;;;4995826;28;19918;-58
2023/09/02 03:29:35;;;;;;;;;;;13.20;99.90;;;;;;4996055;28;20380;-58
2023/09/02 03:32:01;;;;;;;;;;;13.30;99.90;;;;;;5004637;28;20083;-57
2023/09/02 03:34:26;;;;;;;;;;;13.30;99.90;;;;;;4995770;28;19929;-56
2023/09/02 03:36:52;;;;;;;;;;;13.40;99.90;;;;;;4995295;28;20048;-57
2023/09/02 03:39:17;;;;;;;;;;;13.40;99.90;;;;;;4995342;28;19918;-57
2023/09/02 03:41:46;;;;;;;;;;;13.40;99.90;;;;;;4994490;28;20365;-57
2023/09/02 03:44:11;;;;;;;;;;;13.40;99.90;;;;;;4995243;28;19925;-58
2023/09/02 03:46:38;;;;;;;;;;;13.40;99.90;;;;;;4994484;28;20446;-57
2023/09/02 03:49:04;;;;;;;;;;;13.40;99.90;;;;;;4993460;28;19961;-57
2023/09/02 03:51:30;;;;;;;;;;;13.50;99.90;;;;;;4996265;28;20373;-61
2023/09/02 03:53:55;;;;;;;;;;;13.50;99.90;;;;;;4965640;28;19917;-60
2023/09/02 03:56:21;;;;;;;;;;;13.50;99.90;;;;;;4994880;28;19983;-60
2023/09/02 03:58:46;;;;;;;;;;;13.60;99.90;;;;;;4994707;28;19929;-60
2023/09/02 04:01:12;;;;;;;;;;;13.60;99.90;;;;;;4994675;28;19932;-60
2023/09/02 04:03:38;;;;;;;;;;;13.60;99.90;;;;;;4994277;28;20426;-61
2023/09/02 04:06:04;;;;;;;;;;;13.70;99.90;;;;;;4994173;28;20280;-61
2023/09/02 04:08:33;;;;;;;;;;;13.70;99.90;;;;;;4994879;28;19972;-60
2023/09/02 04:10:59;;;;;;;;;;;13.70;99.90;;;;;;5012594;28;19967;-60
2023/09/02 04:13:25;;;;;;;;;;;13.70;99.90;;;;;;5006241;28;19922;-62
2023/09/02 04:15:54;;;;;;;;;;;13.80;99.90;;;;;;5010591;28;19987;-61
2023/09/02 04:18:20;;;;;;;;;;;13.80;99.90;;;;;;5014136;28;20367;-60
2023/09/02 04:20:45;;;;;;;;;;;13.70;99.90;;;;;;5014075;28;19924;-61
2023/09/02 04:23:11;;;;;;;;;;;13.70;99.90;;;;;;5006179;28;19925;-61
2023/09/02 04:25:44;;;;;;;;;;;13.80;99.90;;;;;;5009730;28;19972;-61
2023/09/02 04:28:09;;;;;;;;;;;13.80;99.90;;;;;;5013985;28;20438;-61
2023/09/02 04:30:35;;;;;;;;;;;13.80;99.90;;;;;;5013822;28;19921;-61
2023/09/02 04:33:00;;;;;;;;;;;13.70;99.90;;;;;;5001138;28;19972;-60
2023/09/02 04:35:26;;;;;;;;;;;13.80;99.90;;;;;;5002163;28;20016;-61
2023/09/02 04:37:52;;;;;;;;;;;13.80;99.90;;;;;;5001281;28;19957;-60
2023/09/02 04:40:18;;;;;;;;;;;13.80;99.90;;;;;;5013136;28;19932;-59
2023/09/02 04:42:43;;;;;;;;;;;13.80;99.90;;;;;;4978746;28;20051;-58
2023/09/02 04:45:10;;;;;;;;;;;13.90;99.90;;;;;;5005358;28;20416;-59
2023/09/02 04:47:36;;;;;;;;;;;13.80;99.90;;;;;;4995575;28;19928;-59
2023/09/02 04:50:02;;;;;;;;;;;13.90;99.90;;;;;;4999523;28;19917;-59
2023/09/02 04:52:28;;;;;;;;;;;13.80;99.90;;;;;;5005500;28;19926;-59
2023/09/02 04:54:53;;;;;;;;;;;13.80;99.90;;;;;;5006425;28;20019;-60
2023/09/02 04:57:19;;;;;;;;;;;13.80;99.90;;;;;;5001840;28;19963;-59
2023/09/02 04:59:45;;;;;;;;;;;13.80;99.90;;;;;;5012884;28;20315;-60
2023/09/02 05:02:10;;;;;;;;;;;13.80;99.90;;;;;;5009888;28;20360;-60
2023/09/02 05:04:36;;;;;;;;;;;13.80;99.90;;;;;;5014135;28;19925;-59
2023/09/02 05:07:01;;;;;;;;;;;13.70;99.90;;;;;;5001421;28;19918;-60
2023/09/02 05:09:27;;;;;;;;;;;13.80;99.90;;;;;;5000064;28;20014;-59
2023/09/02 05:11:52;;;;;;;;;;;13.80;99.90;;;;;;5013836;28;20012;-59
2023/09/02 05:14:18;;;;;;;;;;;13.80;99.90;;;;;;5013403;28;19944;-59
2023/09/02 05:16:43;;;;;;;;;;;13.80;99.90;;;;;;5005420;28;19918;-59
2023/09/02 05:19:09;;;;;;;;;;;13.80;99.90;;;;;;5008329;28;19917;-59
2023/09/02 05:21:35;;;;;;;;;;;13.80;99.90;;;;;;5013814;28;20016;-59
2023/09/02 05:24:01;;;;;;;;;;;13.80;99.90;;;;;;5014060;28;20323;-60
2023/09/02 05:26:26;;;;;;;;;;;13.80;99.90;;;;;;4998599;28;19922;-60
2023/09/02 05:28:52;;;;;;;;;;;13.80;99.90;;;;;;5000245;28;19925;-59
2023/09/02 05:31:17;;;;;;;;;;;13.80;99.90;;;;;;5011173;28;19922;-58
2023/09/02 05:33:43;;;;;;;;;;;13.90;99.90;;;;;;4992683;28;19948;-60
2023/09/02 05:36:09;;;;;;;;;;;13.90;99.90;;;;;;4990057;28;19924;-59
2023/09/02 05:38:34;;;;;;;;;;;14.00;99.90;;;;;;5005469;28;20336;-60
2023/09/02 05:41:00;;;;;;;;;;;14.10;99.90;;;;;;5013550;28;20437;-60
2023/09/02 05:43:26;;;;;;;;;;;14.20;99.90;;;;;;5013430;28;19918;-59
2023/09/02 05:45:51;;;;;;;;;;;14.30;99.90;;;;;;4995829;28;19921;-60
2023/09/02 05:48:17;;;;;;;;;;;14.30;99.90;;;;;;4996597;28;19918;-60
2023/09/02 05:50:42;;;;;;;;;;;14.40;99.90;;;;;;5013413;28;20008;-59
2023/09/02 05:53:08;;;;;;;;;;;14.50;99.90;;;;;;5013519;28;19917;-60
2023/09/02 05:55:34;;;;;;;;;;;14.60;99.90;;;;;;5013659;28;20363;-60
2023/09/02 05:58:00;;;;;;;;;;;14.70;99.90;;;;;;5002618;28;19917;-59
2023/09/02 06:00:25;;;;;;;;;;;14.70;99.90;;;;;;4985348;28;19918;-59
2023/09/02 06:02:51;;;;;;;;;;;14.80;99.90;;;;;;5010211;28;19928;-59
2023/09/02 06:05:16;;;;;;;;;;;15.00;99.90;;;;;;4981961;28;20000;-59
2023/09/02 06:07:42;;;;;;;;;;;15.10;99.90;;;;;;5004384;28;19929;-59
2023/09/02 06:10:08;;;;;;;;;;;15.20;99.90;;;;;;4986842;28;19925;-59
2023/09/02 06:12:33;;;;;;;;;;;15.30;99.90;;;;;;5007351;28;20318;-59
2023/09/02 06:15:00;;;;;;;;;;;15.40;99.90;;;;;;5012954;28;19917;-59
2023/09/02 06:17:30;;;;;;;;;;;15.50;99.90;;;;;;5006340;28;20020;-59
2023/09/02 06:19:56;;;;;;;;;;;15.60;99.90;;;;;;5009465;28;19917;-59
2023/09/02 06:22:22;;;;;;;;;;;15.70;99.90;;;;;;4993170;28;19918;-60
2023/09/02 06:24:47;;;;;;;;;;;15.80;99.90;;;;;;4999059;28;20000;-59
2023/09/02 06:27:13;;;;;;;;;;;16.00;99.90;;;;;;5012853;28;19944;-58
2023/09/02 06:29:42;;;;;;;;;;;16.10;99.90;;;;;;5013450;28;19922;-60
2023/09/02 06:32:08;;;;;;;;;;;16.20;99.90;;;;;;5008779;28;19921;-59
2023/09/02 06:34:33;;;;;;;;;;;16.30;99.90;;;;;;5012616;28;19921;-59
2023/09/02 06:36:59;;;;;;;;;;;16.40;99.90;;;;;;4992927;28;19917;-60
2023/09/02 06:39:24;;;;;;;;;;;16.60;99.90;;;;;;5010999;28;19917;-59
2023/09/02 06:41:50;;;;;;;;;;;16.80;99.90;;;;;;5016435;28;20342;-59
2023/09/02 06:44:16;;;;;;;;;;;16.90;99.90;;;;;;5000473;28;20004;-59
2023/09/02 06:46:41;;;;;;;;;;;16.90;99.90;;;;;;5014570;28;19976;-60
2023/09/02 06:49:08;;;;;;;;;;;17.20;99.90;;;;;;5011427;28;19996;-62
2023/09/02 06:51:34;;;;;;;;;;;17.40;99.90;;;;;;5016168;28;19928;-60
2023/09/02 06:53:59;;;;;;;;;;;17.70;99.90;;;;;;5000407;28;19917;-60
2023/09/02 06:56:25;;;;;;;;;;;17.90;99.90;;;;;;4982326;28;19921;-59
2023/09/02 06:58:50;;;;;;;;;;;18.10;99.90;;;;;;5016511;28;19925;-59
2023/09/02 07:01:22;;;;;;;;;;;18.30;99.90;;;;;;5016195;28;19921;-59
2023/09/02 07:03:48;;;;;;;;;;;18.40;99.90;;;;;;4994336;28;20316;-56
2023/09/02 07:06:15;;;;;;;;;;;18.70;99.90;;;;;;4994816;28;19925;-57
2023/09/02 07:08:41;;;;;;;;;;;19.10;99.90;;;;;;4991062;28;19925;-57
2023/09/02 07:11:09;;;;;;;;;;;19.30;99.90;;;;;;5000516;28;19922;-56
2023/09/02 07:13:38;;;;;;;;;;;19.60;99.90;;;;;;4995839;28;19922;-56
2023/09/02 07:16:05;;;;;;;;;;;19.70;99.90;;;;;;4995292;28;19924;-57
2023/09/02 07:18:31;;;;;;;;;;;19.90;99.90;;;;;;4995739;28;19918;-56
2023/09/02 07:20:58;;;;;;;;;;;20.00;99.90;;;;;;4996365;28;20364;-60
2023/09/02 07:23:24;;;;;;;;;;;20.20;99.90;;;;;;4996228;28;19917;-59
2023/09/02 07:25:49;;;;;;;;;;;20.40;99.90;;;;;;4991440;28;20009;-60
2023/09/02 07:28:15;;;;;;;;;;;20.90;99.90;;;;;;4996218;28;19957;-59
2023/09/02 07:30:40;;;;;;;;;;;21.10;99.90;;;;;;4996151;28;19978;-59
2023/09/02 07:33:06;;;;;;;;;;;21.40;99.90;;;;;;4995920;28;19918;-60
2023/09/02 07:35:36;;;;;;;;;;;21.30;99.90;;;;;;4996166;28;19917;-57
2023/09/02 07:38:03;;;;;;;;;;;21.50;99.90;;;;;;4995570;28;20656;-57
2023/09/02 07:40:29;;;;;;;;;;;21.80;99.90;;;;;;4978454;28;19957;-57
2023/09/02 07:42:54;;;;;;;;;;;22.10;99.90;;;;;;4977270;28;19988;-57
2023/09/02 07:45:20;;;;;;;;;;;22.20;99.90;;;;;;4994962;28;19918;-57
2023/09/02 07:47:45;;;;;;;;;;;22.60;99.90;;;;;;4995159;28;20013;-57
2023/09/02 07:50:11;;;;;;;;;;;22.60;99.90;;;;;;4995452;28;20272;-56
2023/09/02 07:52:37;;;;;;;;;;;22.70;99.90;;;;;;4995337;28;19929;-58
2023/09/02 07:55:03;;;;;;;;;;;22.60;99.90;;;;;;4995308;28;19921;-57
2023/09/02 07:57:30;;;;;;;;;;;23.00;99.90;;;;;;4993850;28;19918;-57
2023/09/02 07:59:56;;;;;;;;;;;23.10;99.90;;;;;;4994978;28;20004;-57
2023/09/02 08:02:22;;;;;;;;;;;22.80;99.90;;;;;;4994621;28;20320;-58
2023/09/02 08:04:47;;;;;;;;;;;23.00;99.90;;;;;;4995119;28;19917;-57
2023/09/02 08:07:13;;;;;;;;;;;23.10;99.90;;;;;;4991013;28;19934;-57
2023/09/02 08:09:38;;;;;;;;;;;23.30;99.90;;;;;;5001317;28;19961;-58
2023/09/02 08:12:04;;;;;;;;;;;23.70;99.90;;;;;;5014621;28;19967;-57
2023/09/02 08:14:30;;;;;;;;;;;23.70;99.90;;;;;;5013997;28;20279;-58
2023/09/02 08:16:55;;;;;;;;;;;23.60;99.90;;;;;;5014144;28;19917;-57
2023/09/02 08:19:21;;;;;;;;;;;23.80;99.90;;;;;;4999748;28;19921;-58
2023/09/02 08:21:46;;;;;;;;;;;24.20;99.90;;;;;;5014578;28;19927;-57
2023/09/02 08:24:12;;;;;;;;;;;24.30;99.90;;;;;;5014399;28;19924;-58
2023/09/02 08:26:37;;;;;;;;;;;24.20;99.90;;;;;;5014010;28;19924;-57
2023/09/02 08:29:03;;;;;;;;;;;24.50;99.90;;;;;;5004236;28;20298;-58
2023/09/02 08:31:28;;;;;;;;;;;24.40;99.90;;;;;;4994807;28;19922;-57
2023/09/02 08:33:54;;;;;;;;;;;24.40;99.90;;;;;;4994687;28;19985;-57
2023/09/02 08:36:19;;;;;;;;;;;24.40;99.90;;;;;;4994596;28;20272;-57
2023/09/02 08:38:45;;;;;;;;;;;24.60;99.90;;;;;;4993668;28;19917;-57
2023/09/02 08:41:21;;;;;;;;;;;24.40;99.90;;;;;;4993854;28;19918;-57
2023/09/02 08:43:49;;;;;;;;;;;24.40;99.90;;;;;;4993817;28;20323;-58
2023/09/02 08:46:16;;;;;;;;;;;24.20;99.90;;;;;;4994136;28;19924;-57
2023/09/02 08:48:42;;;;;;;;;;;24.40;99.90;;;;;;4993353;28;20357;-58
2023/09/02 08:51:10;;;;;;;;;;;24.70;99.90;;;;;;4993466;28;19979;-57
2023/09/02 08:53:36;;;;;;;;;;;24.80;99.90;;;;;;4993021;28;19957;-57
2023/09/02 08:56:03;;;;;;;;;;;24.70;99.90;;;;;;4993875;28;19918;-57
2023/09/02 08:58:29;;;;;;;;;;;25.00;99.90;;;;;;4993229;28;20009;-58
2023/09/02 09:00:55;;;;;;;;;;;25.20;99.90;;;;;;4992160;28;19932;-57
2023/09/02 09:03:21;;;;;;;;;;;25.10;99.90;;;;;;4993413;28;19917;-58
2023/09/02 09:05:48;;;;;;;;;;;25.10;99.90;;;;;;4994239;28;19972;-59
2023/09/02 09:08:14;;;;;;;;;;;25.50;99.90;;;;;;4993522;28;20403;-58
2023/09/02 09:10:41;;;;;;;;;;;25.70;99.90;;;;;;4976795;28;20377;-58
2023/09/02 09:13:08;;;;;;;;;;;25.70;99.90;;;;;;5004982;28;19917;-58
2023/09/02 09:15:35;;;;;;;;;;;25.80;99.90;;;;;;5010239;28;19924;-57
2023/09/02 09:18:01;;;;;;;;;;;25.80;99.90;;;;;;4997270;28;19972;-58
2023/09/02 09:20:27;;;;;;;;;;;25.80;99.90;;;;;;4993695;28;19967;-57
2023/09/02 09:22:52;;;;;;;;;;;25.50;99.90;;;;;;4989792;28;20347;-58
2023/09/02 09:25:19;;;;;;;;;;;25.60;99.90;;;;;;4993279;28;19917;-58
2023/09/02 09:27:45;;;;;;;;;;;26.00;99.90;;;;;;4993367;28;19917;-60
2023/09/02 09:30:25;;;;;;;;;;;26.10;99.90;;;;;;4974637;28;20336;-57
2023/09/02 09:32:58;;;;;;;;;;;26.10;99.90;;;;;;4973075;28;20359;-61
2023/09/02 09:35:24;;;;;;;;;;;26.30;99.90;;;;;;4993257;28;20364;-61
2023/09/02 09:37:53;;;;;;;;;;;26.10;99.90;;;;;;4993116;28;19943;-60
2023/09/02 09:40:30;;;;;;;;;;;25.80;99.90;;;;;;4974456;28;19918;-62
2023/09/02 09:42:56;;;;;;;;;;;25.40;99.90;;;;;;4993274;28;20364;-60
2023/09/02 09:45:21;;;;;;;;;;;25.10;99.90;;;;;;4993310;28;19918;-61
2023/09/02 09:47:47;;;;;;;;;;;24.70;99.90;;;;;;4993140;28;19963;-61
2023/09/02 09:50:21;;;;;;;;;;;24.40;99.90;;;;;;4994085;28;19921;-59
2023/09/02 09:52:59;;;;;;;;;;;24.20;99.90;;;;;;4980296;28;19925;-58
2023/09/02 09:55:25;;;;;;;;;;;24.00;99.90;;;;;;4993586;28;19945;-58
2023/09/02 09:57:54;;;;;;;;;;;23.70;99.90;;;;;;4992941;28;20418;-59
2023/09/02 10:00:20;;;;;;;;;;;23.40;99.90;;;;;;4992966;28;19922;-59
2023/09/02 10:02:52;;;;;;;;;;;23.20;99.90;;;;;;4994150;28;19918;-64
2023/09/02 10:05:24;;;;;;;;;;;23.00;99.90;;;;;;4992747;28;20284;-61
2023/09/02 10:08:00;;;;;;;;;;;22.90;99.90;;;;;;4992957;28;20035;-61
2023/09/02 10:10:28;;;;;;;;;;;22.80;99.90;;;;;;5006367;28;20040;-60
2023/09/02 10:12:54;;;;;;;;;;;23.00;99.90;;;;;;5002844;28;19979;-62
2023/09/02 10:15:24;;;;;;;;;;;23.40;99.90;;;;;;4995235;28;19918;-60
2023/09/02 10:17:51;;;;;;;;;;;23.70;99.90;;;;;;5012752;28;20013;-60
2023/09/02 10:20:18;;;;;;;;;;;23.90;99.90;;;;;;4996246;28;19972;-60
2023/09/02 10:22:44;;;;;;;;;;;24.20;99.90;;;;;;5008361;28;19933;-61
2023/09/02 10:25:16;;;;;;;;;;;24.50;99.90;;;;;;5004686;28;19917;-60
2023/09/02 10:27:43;;;;;;;;;;;24.60;99.90;;;;;;4994644;28;19918;-60
2023/09/02 10:30:25;;;;;;;;;;;24.70;99.90;;;;;;5012762;28;20003;-61
2023/09/02 10:32:54;;;;;;;;;;;24.60;99.90;;;;;;4998377;28;20024;-61
2023/09/02 10:35:24;;;;;;;;;;;24.40;99.90;;;;;;5000597;28;20315;-61
2023/09/02 10:37:51;;;;;;;;;;;23.90;99.90;;;;;;4999919;28;19917;-61
2023/09/02 10:40:19;;;;;;;;;;;23.70;99.90;;;;;;5012548;28;19925;-60
2023/09/02 10:42:45;;;;;;;;;;;23.40;99.90;;;;;;5012375;28;19924;-60
2023/09/02 10:45:11;;;;;;;;;;;23.30;99.90;;;;;;4994945;28;19917;-60
2023/09/02 10:47:37;;;;;;;;;;;23.20;99.90;;;;;;5004219;28;19917;-61
2023/09/02 10:50:03;;;;;;;;;;;23.00;99.90;;;;;;5012298;28;19967;-61
2023/09/02 10:52:29;;;;;;;;;;;23.10;99.90;;;;;;5012111;28;20382;-61
2023/09/02 10:55:03;;;;;;;;;;;23.10;99.90;;;;;;5005047;28;20020;-61
2023/09/02 10:57:29;;;;;;;;;;;23.10;99.90;;;;;;5001523;28;19917;-61
2023/09/02 11:00:13;;;;;;;;;;;23.20;99.90;;;;;;5011887;28;19996;-61
2023/09/02 11:02:40;;;;;;;;;;;23.30;99.90;;;;;;5008976;28;20295;-61
2023/09/02 11:05:06;;;;;;;;;;;23.40;99.90;;;;;;5007276;28;20376;-62
2023/09/02 11:07:33;;;;;;;;;;;23.90;99.90;;;;;;4995545;28;19918;-62
2023/09/02 11:09:59;;;;;;;;;;;25.30;99.90;;;;;;5001967;28;19925;-62
2023/09/02 11:12:25;;;;;;;;;;;26.20;99.90;;;;;;5011564;28;19921;-62
2023/09/02 11:15:06;;;;;;;;;;;26.80;99.90;;;;;;5011821;28;19924;-61
2023/09/02 11:17:31;;;;;;;;;;;27.30;99.90;;;;;;4996079;28;20438;-62
2023/09/02 11:19:58;;;;;;;;;;;26.70;99.90;;;;;;5015681;28;19921;-60
2023/09/02 11:22:42;;;;;;;;;;;26.20;99.90;;;;;;5015492;28;19929;-63
2023/09/02 11:25:08;;;;;;;;;;;26.00;99.90;;;;;;5015298;28;19921;-62
2023/09/02 11:27:43;;;;;;;;;;;26.90;99.90;;;;;;5001519;28;19921;-61
2023/09/02 11:30:09;;;;;;;;;;;27.40;99.90;;;;;;5006155;28;19917;-63
2023/09/02 11:32:42;;;;;;;;;;;27.90;99.90;;;;;;5015098;28;19928;-62
2023/09/02 11:35:08;;;;;;;;;;;28.30;99.90;;;;;;5015337;28;19924;-60
2023/09/02 11:37:33;;;;;;;;;;;28.20;99.90;;;;;;5015182;28;19921;-61
2023/09/02 11:40:11;;;;;;;;;;;27.60;99.90;;;;;;5006525;28;19917;-60
2023/09/02 11:42:46;;;;;;;;;;;28.00;99.90;;;;;;4995259;28;20335;-60
2023/09/02 11:45:13;;;;;;;;;;;28.60;99.90;;;;;;4995662;28;19918;-59
2023/09/02 11:47:39;;;;;;;;;;;28.70;99.90;;;;;;4995374;28;19960;-59
2023/09/02 11:50:10;;;;;;;;;;;29.00;99.90;;;;;;4977479;28;19969;-60
2023/09/02 11:52:35;;;;;;;;;;;27.80;99.90;;;;;;4994496;28;19922;-60
2023/09/02 11:55:06;;;;;;;;;;;27.30;99.90;;;;;;4995168;28;19941;-60
2023/09/02 11:57:31;;;;;;;;;;;27.20;99.90;;;;;;4995085;28;20000;-60
2023/09/02 11:59:57;;;;;;;;;;;27.30;99.90;;;;;;4977247;28;20012;-60
2023/09/02 12:02:25;;;;;;;;;;;27.20;99.90;;;;;;4995487;28;19961;-59
2023/09/02 12:04:50;;;;;;;;;;;26.80;99.90;;;;;;4994924;28;19996;-60
2023/09/02 12:07:17;;;;;;;;;;;27.10;99.90;;;;;;4994761;28;20009;-59
2023/09/02 12:09:42;;;;;;;;;;;27.10;99.90;;;;;;5002214;28;19987;-60
2023/09/02 12:12:08;;;;;;;;;;;26.60;99.90;;;;;;5000911;28;20319;-59
2023/09/02 12:14:36;;;;;;;;;;;26.40;99.90;;;;;;5014020;28;19917;-59
2023/09/02 12:17:03;;;;;;;;;;;26.50;99.90;;;;;;4996744;28;19917;-59
2023/09/02 12:19:29;;;;;;;;;;;26.40;99.90;;;;;;5014252;28;19917;-60
2023/09/02 12:21:54;;;;;;;;;;;26.30;99.90;;;;;;5008601;28;19924;-59
2023/09/02 12:24:20;;;;;;;;;;;26.30;99.90;;;;;;4998604;28;19992;-59
2023/09/02 12:26:46;;;;;;;;;;;26.50;99.90;;;;;;5014436;28;19921;-59
2023/09/02 12:29:19;;;;;;;;;;;26.70;99.90;;;;;;5013764;28;20418;-60
2023/09/02 12:31:57;;;;;;;;;;;26.50;99.90;;;;;;5012469;28;19951;-59
2023/09/02 12:34:24;;;;;;;;;;;26.60;99.90;;;;;;5011158;28;21155;-59
2023/09/02 12:36:49;;;;;;;;;;;26.70;99.90;;;;;;4976453;28;19921;-59
2023/09/02 12:39:24;;;;;;;;;;;26.80;99.90;;;;;;5006860;28;19924;-59
2023/09/02 12:41:50;;;;;;;;;;;26.70;99.90;;;;;;4987099;28;20582;-59
2023/09/02 12:44:18;;;;;;;;;;;26.60;99.90;;;;;;5014055;28;19928;-59
2023/09/02 12:46:45;;;;;;;;;;;26.70;99.90;;;;;;5001462;28;20712;-59
2023/09/02 12:49:10;;;;;;;;;;;26.50;99.90;;;;;;5013898;28;20704;-60
2023/09/02 12:51:39;;;;;;;;;;;26.30;99.90;;;;;;5010753;28;19927;-60
2023/09/02 12:54:08;;;;;;;;;;;26.40;99.90;;;;;;5014057;28;20036;-60
2023/09/02 12:56:34;;;;;;;;;;;26.00;99.90;;;;;;5013499;28;19953;-60
2023/09/02 12:58:59;;;;;;;;;;;26.20;99.90;;;;;;5013634;28;20454;-60
2023/09/02 13:01:25;;;;;;;;;;;26.20;99.90;;;;;;4980681;28;20713;-59
2023/09/02 13:03:51;;;;;;;;;;;26.10;99.90;;;;;;5007394;28;19953;-60
2023/09/02 13:06:16;;;;;;;;;;;26.00;99.90;;;;;;4976250;28;19972;-62
2023/09/02 13:08:43;;;;;;;;;;;26.10;99.90;;;;;;4978986;28;19971;-61
2023/09/02 13:11:08;;;;;;;;;;;25.90;99.90;;;;;;5003565;28;19922;-62
2023/09/02 13:13:34;;;;;;;;;;;26.00;99.90;;;;;;4988948;28;19924;-62
2023/09/02 13:16:02;;;;;;;;;;;26.00;99.90;;;;;;4976342;28;19917;-61
2023/09/02 13:18:34;;;;;;;;;;;25.90;99.90;;;;;;4993134;28;20360;-63
2023/09/02 13:21:00;;;;;;;;;;;25.80;99.90;;;;;;4992882;28;19925;-63
2023/09/02 13:23:26;;;;;;;;;;;25.50;99.90;;;;;;4992103;28;20012;-61
2023/09/02 13:25:51;;;;;;;;;;;25.50;99.90;;;;;;4993391;28;20000;-59
2023/09/02 13:28:17;;;;;;;;;;;25.70;99.90;;;;;;4977183;28;20005;-60
2023/09/02 13:30:45;;;;;;;;;;;25.80;99.90;;;;;;4993773;28;20008;-63
2023/09/02 13:33:10;;;;;;;;;;;25.60;99.90;;;;;;4993876;28;20356;-62
2023/09/02 13:35:36;;;;;;;;;;;25.50;99.90;;;;;;4993754;28;20279;-63
2023/09/02 13:38:02;;;;;;;;;;;25.60;99.90;;;;;;4989711;28;19918;-62
2023/09/02 13:40:27;;;;;;;;;;;25.40;99.90;;;;;;4992026;28;20352;-62
2023/09/02 13:42:53;;;;;;;;;;;25.30;99.90;;;;;;4994845;28;19925;-61
2023/09/02 13:45:25;;;;;;;;;;;25.30;99.90;;;;;;4982395;28;19964;-62
2023/09/02 13:47:50;;;;;;;;;;;25.30;99.90;;;;;;4993501;28;20375;-63
2023/09/02 13:50:17;;;;;;;;;;;25.10;99.90;;;;;;4992442;28;19969;-63
2023/09/02 13:52:45;;;;;;;;;;;24.90;99.90;;;;;;4992970;28;20300;-61
2023/09/02 13:55:11;;;;;;;;;;;24.90;99.90;;;;;;4992963;28;19925;-62
2023/09/02 13:57:36;;;;;;;;;;;24.90;99.90;;;;;;4992611;28;19918;-62
2023/09/02 14:00:05;;;;;;;;;;;24.80;99.90;;;;;;4989186;28;19925;-62
2023/09/02 14:02:31;;;;;;;;;;;24.50;99.90;;;;;;4975599;28;19925;-62
2023/09/02 14:04:57;;;;;;;;;;;24.20;99.90;;;;;;4996286;28;19921;-62
2023/09/02 14:07:23;;;;;;;;;;;24.10;99.90;;;;;;4987697;28;19997;-62
2023/09/02 14:09:48;;;;;;;;;;;24.00;99.90;;;;;;4988957;28;20132;-62
2023/09/02 14:12:21;;;;;;;;;;;23.70;99.90;;;;;;4971418;28;19968;-61
2023/09/02 14:14:46;;;;;;;;;;;23.70;99.90;;;;;;4991987;28;19917;-62